createdAt,value
2019-06-01T00:00:50.934Z,16.50
2019-06-01T00:03:20.237Z,18.00
2019-06-01T00:05:49.563Z,17.63
2019-06-01T00:08:18.829Z,15.53
2019-06-01T00:10:49.346Z,14.17
2019-06-01T00:13:18.985Z,17.80
2019-06-01T00:15:48.360Z,18.47
2019-06-01T00:18:17.667Z,13.73
2019-06-01T00:20:47.041Z,15.87
2019-06-01T00:23:16.298Z,19.20
2019-06-01T00:25:46.675Z,12.83
2019-06-01T00:28:16.164Z,20.80
2019-06-01T00:30:45.812Z,15.93
2019-06-01T00:33:15.178Z,16.57
2019-06-01T00:35:45.468Z,11.13
2019-06-01T00:38:14.829Z,17.90
2019-06-01T00:40:44.113Z,21.90
2019-06-01T00:43:13.414Z,13.60
2019-06-01T00:45:44.378Z,12.77
2019-06-01T00:48:13.828Z,15.43
2019-06-01T00:50:43.208Z,16.70
2019-06-01T00:53:12.574Z,18.83
2019-06-01T00:55:43.139Z,22.47
2019-06-01T00:58:12.601Z,18.17
2019-06-01T01:00:44.206Z,17.80
2019-06-01T01:03:12.777Z,18.43
2019-06-01T01:05:42.058Z,15.03
2019-06-01T01:08:11.361Z,16.07
2019-06-01T01:10:40.674Z,13.50
2019-06-01T01:13:12.986Z,16.80
2019-06-01T01:15:42.245Z,15.07
2019-06-01T01:18:11.606Z,16.47
2019-06-01T01:20:40.923Z,20.77
2019-06-01T01:23:10.281Z,15.43
2019-06-01T01:25:39.547Z,22.33
2019-06-01T01:28:08.814Z,15.63
2019-06-01T01:30:38.073Z,17.77
2019-06-01T01:33:07.365Z,16.40
2019-06-01T01:35:36.626Z,17.50
2019-06-01T01:38:05.916Z,15.37
2019-06-01T01:40:35.181Z,16.53
2019-06-01T01:43:04.452Z,16.60
2019-06-01T01:45:33.747Z,15.80
2019-06-01T01:48:03.006Z,14.63
2019-06-01T01:50:32.334Z,14.63
2019-06-01T01:53:03.188Z,13.47
2019-06-01T01:55:32.647Z,12.53
2019-06-01T01:58:01.917Z,15.27
2019-06-01T02:00:37.272Z,13.70
2019-06-01T02:03:07.402Z,15.27
2019-06-01T02:05:36.878Z,10.70
2019-06-01T02:08:06.897Z,15.07
2019-06-01T02:10:36.202Z,15.50
2019-06-01T02:13:06.146Z,13.13
2019-06-01T02:15:36.131Z,12.03
2019-06-01T02:18:05.813Z,12.57
2019-06-01T02:20:35.292Z,11.57
2019-06-01T02:23:05.156Z,14.40
2019-06-01T02:25:34.850Z,14.03
2019-06-01T02:28:04.244Z,11.50
2019-06-01T02:30:33.574Z,12.10
2019-06-01T02:33:04.522Z,15.00
2019-06-01T02:35:33.813Z,11.97
2019-06-01T02:38:05.512Z,14.93
2019-06-01T02:40:35.519Z,13.53
2019-06-01T02:43:06.826Z,16.43
2019-06-01T02:45:36.009Z,17.43
2019-06-01T02:48:06.637Z,13.87
2019-06-01T02:50:36.247Z,18.57
2019-06-01T02:53:05.903Z,15.93
2019-06-01T02:55:35.227Z,16.37
2019-06-01T02:58:04.553Z,15.37
2019-06-01T03:01:10.251Z,18.43
2019-06-01T03:03:40.054Z,16.03
2019-06-01T03:06:10.878Z,18.00
2019-06-01T03:08:40.957Z,18.93
2019-06-01T03:11:11.917Z,14.60
2019-06-01T03:13:42.322Z,15.87
2019-06-01T03:16:15.417Z,15.20
2019-06-01T03:18:46.313Z,15.10
2019-06-01T03:21:18.949Z,14.43
2019-06-01T03:23:50.597Z,18.67
2019-06-01T03:26:22.839Z,15.47
2019-06-01T03:28:53.201Z,16.20
2019-06-01T03:31:22.529Z,16.13
2019-06-01T03:33:51.878Z,12.83
2019-06-01T03:36:21.133Z,17.90
2019-06-01T03:38:50.686Z,16.33
2019-06-01T03:41:20.506Z,16.13
2019-06-01T03:43:49.785Z,15.77
2019-06-01T03:46:19.098Z,18.90
2019-06-01T03:48:48.413Z,15.33
2019-06-01T03:51:17.668Z,15.30
2019-06-01T03:53:46.948Z,13.97
2019-06-01T03:56:16.270Z,15.40
2019-06-01T03:58:45.639Z,16.13
2019-06-01T04:01:14.893Z,16.50
2019-06-01T04:03:44.197Z,14.77
2019-06-01T04:06:13.482Z,14.67
2019-06-01T04:08:42.772Z,17.47
2019-06-01T04:11:12.158Z,15.60
2019-06-01T04:13:41.409Z,16.13
2019-06-01T04:16:11.816Z,16.53
2019-06-01T04:18:41.412Z,14.93
2019-06-01T04:21:10.735Z,16.10
2019-06-01T04:23:40.052Z,15.90
2019-06-01T04:26:10.282Z,19.97
2019-06-01T04:28:39.797Z,17.10
2019-06-01T04:31:09.074Z,17.20
2019-06-01T04:33:38.374Z,18.93
2019-06-01T04:36:08.933Z,21.00
2019-06-01T04:38:38.354Z,21.30
2019-06-01T04:41:07.660Z,24.70
2019-06-01T04:43:36.950Z,22.17
2019-06-01T04:46:08.113Z,21.20
2019-06-01T04:48:37.669Z,19.90
2019-06-01T04:51:06.939Z,20.13
2019-06-01T04:53:36.227Z,20.10
2019-06-01T04:56:06.893Z,20.03
2019-06-01T04:58:36.319Z,17.50
2019-06-01T05:01:06.800Z,19.13
2019-06-01T05:03:36.315Z,18.97
2019-06-01T05:06:05.582Z,17.27
2019-06-01T05:08:34.862Z,21.57
2019-06-01T05:11:05.746Z,19.53
2019-06-01T05:13:35.163Z,19.33
2019-06-01T05:16:05.793Z,17.90
2019-06-01T05:18:35.407Z,13.47
2019-06-01T05:21:06.325Z,17.47
2019-06-01T05:23:35.775Z,14.63
2019-06-01T05:26:05.074Z,18.13
2019-06-01T05:28:34.321Z,14.13
2019-06-01T05:31:03.637Z,13.77
2019-06-01T05:33:37.328Z,15.57
2019-06-01T05:36:03.987Z,14.93
2019-06-01T05:38:33.286Z,15.87
2019-06-01T05:41:02.557Z,15.13
2019-06-01T05:43:31.814Z,15.60
2019-06-01T05:46:01.083Z,16.43
2019-06-01T05:48:30.870Z,11.10
2019-06-01T05:51:00.277Z,13.17
2019-06-01T05:53:29.642Z,11.33
2019-06-01T05:55:59.094Z,16.93
2019-06-01T05:58:29.393Z,15.53
2019-06-01T06:00:58.956Z,14.47
2019-06-01T06:03:39.918Z,14.57
2019-06-01T06:05:59.457Z,19.40
2019-06-01T06:08:28.901Z,12.53
2019-06-01T06:10:58.161Z,13.23
2019-06-01T06:13:27.422Z,25.47
2019-06-01T06:15:56.689Z,16.70
2019-06-01T06:18:26.022Z,16.23
2019-06-01T06:20:55.324Z,19.50
2019-06-01T06:23:24.586Z,15.83
2019-06-01T06:25:53.841Z,20.20
2019-06-01T06:28:25.939Z,21.20
2019-06-01T06:30:54.179Z,19.00
2019-06-01T06:33:23.750Z,20.33
2019-06-01T06:35:53.132Z,19.20
2019-06-01T06:38:22.473Z,20.47
2019-06-01T06:40:51.724Z,24.17
2019-06-01T06:43:29.709Z,24.60
2019-06-01T06:45:52.062Z,23.13
2019-06-01T06:48:21.399Z,22.87
2019-06-01T06:50:50.784Z,20.13
2019-06-01T06:53:28.241Z,18.50
2019-06-01T06:55:54.244Z,19.23
2019-06-01T06:58:26.771Z,15.17
2019-06-01T07:00:56.022Z,12.57
2019-06-01T07:03:25.296Z,18.20
2019-06-01T07:05:55.949Z,23.07
2019-06-01T07:08:25.971Z,13.57
2019-06-01T07:10:55.588Z,12.60
2019-06-01T07:13:25.442Z,13.90
2019-06-01T07:15:54.935Z,14.17
2019-06-01T07:18:24.211Z,10.37
2019-06-01T07:20:53.622Z,10.33
2019-06-01T07:23:25.822Z,8.63
2019-06-01T07:25:58.170Z,7.30
2019-06-01T07:28:29.621Z,9.00
2019-06-01T07:31:01.441Z,7.67
2019-06-01T07:33:33.733Z,8.73
2019-06-01T07:36:03.002Z,7.20
2019-06-01T07:38:37.270Z,8.83
2019-06-01T07:41:09.386Z,9.33
2019-06-01T07:43:39.471Z,7.13
2019-06-01T07:46:08.785Z,6.90
2019-06-01T07:48:38.058Z,8.85
2019-06-01T07:51:17.983Z,5.72
2019-06-01T07:53:48.797Z,5.15
2019-06-01T07:56:40.112Z,9.35
2019-06-01T07:59:14.500Z,5.95
2019-06-01T08:01:46.616Z,6.53
2019-06-01T08:04:19.206Z,5.10
2019-06-01T08:06:51.197Z,5.25
2019-06-01T08:09:27.929Z,6.78
2019-06-01T08:11:57.309Z,5.08
2019-06-01T08:14:26.772Z,5.12
2019-06-01T08:16:56.109Z,8.30
2019-06-01T08:19:28.036Z,5.50
2019-06-01T08:21:57.513Z,5.28
2019-06-01T08:24:30.253Z,4.17
2019-06-01T08:27:00.895Z,5.97
2019-06-01T08:29:30.764Z,3.22
2019-06-01T08:32:03.041Z,3.98
2019-06-01T08:34:33.111Z,4.87
2019-06-01T08:37:05.330Z,4.22
2019-06-01T08:39:36.201Z,3.47
2019-06-01T08:42:06.706Z,3.47
2019-06-01T08:44:36.052Z,5.67
2019-06-01T08:47:07.461Z,2.85
2019-06-01T08:49:36.830Z,3.15
2019-06-01T08:52:09.090Z,3.70
2019-06-01T08:54:38.435Z,4.67
2019-06-01T08:57:09.106Z,3.55
2019-06-01T08:59:49.007Z,4.35
2019-06-01T09:02:26.618Z,6.67
2019-06-01T09:04:58.867Z,5.95
2019-06-01T09:07:29.018Z,4.28
2019-06-01T09:09:58.967Z,3.70
2019-06-01T09:12:31.363Z,4.28
2019-06-01T09:15:00.854Z,5.83
2019-06-01T09:17:31.415Z,4.50
2019-06-01T09:20:03.239Z,5.55
2019-06-01T09:22:33.530Z,4.58
2019-06-01T09:25:03.419Z,4.30
2019-06-01T09:27:33.853Z,5.75
2019-06-01T09:30:03.337Z,4.62
2019-06-01T09:32:36.436Z,3.15
2019-06-01T09:35:06.386Z,3.35
2019-06-01T09:37:36.787Z,3.12
2019-06-01T09:40:07.602Z,3.90
2019-06-01T09:42:37.490Z,6.72
2019-06-01T09:45:08.494Z,5.97
2019-06-01T09:47:40.550Z,3.92
2019-06-01T09:50:10.908Z,3.60
2019-06-01T09:52:40.241Z,3.47
2019-06-01T09:55:18.170Z,4.33
2019-06-01T09:57:47.458Z,5.72
2019-06-01T10:00:18.531Z,4.08
2019-06-01T10:02:47.782Z,2.35
2019-06-01T10:05:17.282Z,3.17
2019-06-01T10:07:46.634Z,4.50
2019-06-01T10:10:17.334Z,3.05
2019-06-01T10:12:49.516Z,3.37
2019-06-01T10:15:18.786Z,5.92
2019-06-01T10:17:48.060Z,4.67
2019-06-01T10:20:17.634Z,3.77
2019-06-01T10:22:49.247Z,4.92
2019-06-01T10:25:19.001Z,6.30
2019-06-01T10:27:51.910Z,4.25
2019-06-01T10:30:21.302Z,4.65
2019-06-01T10:32:50.637Z,5.42
2019-06-01T10:35:20.066Z,3.83
2019-06-01T10:37:49.333Z,3.67
2019-06-01T10:40:18.747Z,6.25
2019-06-01T10:42:48.006Z,3.98
2019-06-01T10:45:17.549Z,3.83
2019-06-01T10:47:46.957Z,2.20
2019-06-01T10:50:17.622Z,3.00
2019-06-01T10:52:47.774Z,3.40
2019-06-01T10:55:17.064Z,4.00
2019-06-01T10:57:46.336Z,2.98
2019-06-01T11:00:16.065Z,4.62
2019-06-01T11:02:45.344Z,2.33
2019-06-01T11:05:14.949Z,2.90
2019-06-01T11:07:44.195Z,3.47
2019-06-01T11:10:13.745Z,5.20
2019-06-01T11:12:43.377Z,3.30
2019-06-01T11:15:13.191Z,3.50
2019-06-01T11:17:43.251Z,3.35
2019-06-01T11:20:12.813Z,4.87
2019-06-01T11:22:42.085Z,4.20
2019-06-01T11:25:11.521Z,3.83
2019-06-01T11:27:41.902Z,4.67
2019-06-01T11:30:12.766Z,3.85
2019-06-01T11:32:43.666Z,5.67
2019-06-01T11:35:13.858Z,4.92
2019-06-01T11:37:44.418Z,3.98
2019-06-01T11:40:14.063Z,3.98
2019-06-01T11:42:43.388Z,3.83
2019-06-01T11:45:12.978Z,2.87
2019-06-01T11:47:42.914Z,3.50
2019-06-01T11:50:14.001Z,2.80
2019-06-01T11:52:43.308Z,4.25
2019-06-01T11:55:13.163Z,2.62
2019-06-01T11:57:43.476Z,2.35
2019-06-01T12:00:13.178Z,2.85
2019-06-01T12:02:43.715Z,3.00
2019-06-01T12:05:13.492Z,4.33
2019-06-01T12:07:43.823Z,3.95
2019-06-01T12:10:14.117Z,6.55
2019-06-01T12:12:44.313Z,4.50
2019-06-01T12:15:19.518Z,3.00
2019-06-01T12:17:48.785Z,3.62
2019-06-01T12:20:18.062Z,4.62
2019-06-01T12:22:47.315Z,3.20
2019-06-01T12:25:16.581Z,4.20
2019-06-01T12:27:46.087Z,5.95
2019-06-01T12:30:16.008Z,4.58
2019-06-01T12:32:46.109Z,4.97
2019-06-01T12:35:15.804Z,5.00
2019-06-01T12:38:04.824Z,6.28
2019-06-01T12:40:16.302Z,4.78
2019-06-01T12:42:46.045Z,5.40
2019-06-01T12:45:22.856Z,5.58
2019-06-01T12:47:55.431Z,5.60
2019-06-01T12:50:21.299Z,6.33
2019-06-01T12:52:50.749Z,6.07
2019-06-01T12:55:20.012Z,5.28
2019-06-01T12:57:49.403Z,5.63
2019-06-01T13:00:19.845Z,5.95
2019-06-01T13:02:56.340Z,4.22
2019-06-01T13:05:20.095Z,6.55
2019-06-01T13:07:58.539Z,5.92
2019-06-01T13:10:20.547Z,6.20
2019-06-01T13:12:49.839Z,6.10
2019-06-01T13:15:19.186Z,5.47
2019-06-01T13:17:49.434Z,5.60
2019-06-01T13:20:19.005Z,5.97
2019-06-01T13:22:48.290Z,5.00
2019-06-01T13:25:17.629Z,6.43
2019-06-01T13:27:48.707Z,7.85
2019-06-01T13:30:17.905Z,7.42
2019-06-01T13:32:48.271Z,5.50
2019-06-01T13:35:44.326Z,6.62
2019-06-01T13:38:13.852Z,7.28
2019-06-01T13:40:43.105Z,11.25
2019-06-01T13:43:12.399Z,5.70
2019-06-01T13:45:43.042Z,4.85
2019-06-01T13:48:12.538Z,5.12
2019-06-01T13:50:41.830Z,5.40
2019-06-01T13:53:11.225Z,4.62
2019-06-01T13:55:40.510Z,4.17
2019-06-01T13:58:09.781Z,5.10
2019-06-01T14:00:39.065Z,4.00
2019-06-01T14:03:08.330Z,3.77
2019-06-01T14:05:37.654Z,3.42
2019-06-01T14:08:07.006Z,5.15
2019-06-01T14:10:36.337Z,4.00
2019-06-01T14:13:05.836Z,5.03
2019-06-01T14:15:35.177Z,4.90
2019-06-01T14:18:05.398Z,4.90
2019-06-01T14:20:34.681Z,4.15
2019-06-01T14:23:03.963Z,4.90
2019-06-01T14:25:33.238Z,5.08
2019-06-01T14:28:02.534Z,4.92
2019-06-01T14:30:31.786Z,6.83
2019-06-01T14:33:01.065Z,5.63
2019-06-01T14:35:30.342Z,5.67
2019-06-01T14:37:59.602Z,4.20
2019-06-01T14:40:28.924Z,5.42
2019-06-01T14:42:58.182Z,5.57
2019-06-01T14:45:27.449Z,4.78
2019-06-01T14:47:57.696Z,4.22
2019-06-01T14:50:27.165Z,4.12
2019-06-01T14:52:57.784Z,5.40
2019-06-01T14:55:27.169Z,4.83
2019-06-01T14:57:56.441Z,5.78
2019-06-01T15:00:25.706Z,5.08
2019-06-01T15:02:56.202Z,6.42
2019-06-01T15:05:25.910Z,4.15
2019-06-01T15:07:57.068Z,5.20
2019-06-01T15:10:26.522Z,5.70
2019-06-01T15:13:00.788Z,7.83
2019-06-01T15:15:26.877Z,7.25
2019-06-01T15:17:57.476Z,4.83
2019-06-01T15:20:27.029Z,7.95
2019-06-01T15:22:56.392Z,4.58
2019-06-01T15:25:25.791Z,4.12
2019-06-01T15:27:55.047Z,4.37
2019-06-01T15:30:25.172Z,6.78
2019-06-01T15:32:54.450Z,6.13
2019-06-01T15:35:23.633Z,4.72
2019-06-01T15:37:57.174Z,4.75
2019-06-01T15:40:24.090Z,6.62
2019-06-01T15:42:53.609Z,4.85
2019-06-01T15:45:23.097Z,4.53
2019-06-01T15:47:53.301Z,5.12
2019-06-01T15:50:22.746Z,4.50
2019-06-01T15:52:53.013Z,5.27
2019-06-01T15:55:22.528Z,5.57
2019-06-01T15:57:52.226Z,5.25
2019-06-01T16:00:21.893Z,5.90
2019-06-01T16:02:52.728Z,5.37
2019-06-01T16:05:22.170Z,7.27
2019-06-01T16:07:51.431Z,5.55
2019-06-01T16:10:20.730Z,4.73
2019-06-01T16:12:49.997Z,4.90
2019-06-01T16:15:19.269Z,4.13
2019-06-01T16:17:48.582Z,5.50
2019-06-01T16:20:18.466Z,4.08
2019-06-01T16:22:47.863Z,4.28
2019-06-01T16:25:17.402Z,5.70
2019-06-01T16:27:46.682Z,6.15
2019-06-01T16:30:16.607Z,5.10
2019-06-01T16:32:45.863Z,4.70
2019-06-01T16:35:15.181Z,4.85
2019-06-01T16:37:44.515Z,5.30
2019-06-01T16:40:15.061Z,4.70
2019-06-01T16:42:44.337Z,4.57
2019-06-01T16:45:14.270Z,4.00
2019-06-01T16:47:43.558Z,6.45
2019-06-01T16:50:13.018Z,3.85
2019-06-01T16:52:42.309Z,4.83
2019-06-01T16:55:12.842Z,4.65
2019-06-01T16:57:42.098Z,6.25
2019-06-01T17:00:13.589Z,4.70
2019-06-01T17:02:42.845Z,3.72
2019-06-01T17:05:14.434Z,5.53
2019-06-01T17:07:43.782Z,4.90
2019-06-01T17:10:25.625Z,4.33
2019-06-01T17:12:45.054Z,6.30
2019-06-01T17:15:15.445Z,4.37
2019-06-01T17:17:44.635Z,4.35
2019-06-01T17:20:40.513Z,6.47
2019-06-01T17:23:24.472Z,8.20
2019-06-01T17:25:40.890Z,6.03
2019-06-01T17:28:10.253Z,5.23
2019-06-01T17:30:39.567Z,4.50
2019-06-01T17:33:09.030Z,5.63
2019-06-01T17:35:38.330Z,4.30
2019-06-01T17:38:09.061Z,4.67
2019-06-01T17:40:42.541Z,7.00
2019-06-01T17:43:09.552Z,5.03
2019-06-01T17:45:38.851Z,6.12
2019-06-01T17:48:24.306Z,8.10
2019-06-01T17:50:39.202Z,7.70
2019-06-01T17:53:08.844Z,7.17
2019-06-01T17:55:39.497Z,4.10
2019-06-01T17:58:10.025Z,4.47
2019-06-01T18:00:40.410Z,3.83
2019-06-01T18:03:10.105Z,8.53
2019-06-01T18:05:39.610Z,5.37
2019-06-01T18:08:10.142Z,5.13
2019-06-01T18:10:53.340Z,4.13
2019-06-01T18:13:12.803Z,5.03
2019-06-01T18:15:42.383Z,5.30
2019-06-01T18:18:12.871Z,6.10
2019-06-01T18:20:42.481Z,6.23
2019-06-01T18:23:13.197Z,5.80
2019-06-01T18:25:43.107Z,5.90
2019-06-01T18:28:16.152Z,6.00
2019-06-01T18:30:43.410Z,10.17
2019-06-01T18:33:13.234Z,5.83
2019-06-01T18:35:42.659Z,8.57
2019-06-01T18:38:13.046Z,7.90
2019-06-01T18:40:43.125Z,6.03
2019-06-01T18:43:17.187Z,6.63
2019-06-01T18:45:47.749Z,5.87
2019-06-01T18:48:17.943Z,6.30
2019-06-01T18:50:48.261Z,6.70
2019-06-01T18:53:17.983Z,5.80
2019-06-01T18:55:47.348Z,5.27
2019-06-01T18:58:16.715Z,7.30
2019-06-01T19:00:46.376Z,5.93
2019-06-01T19:03:15.740Z,6.53
2019-06-01T19:05:45.082Z,6.87
2019-06-01T19:08:15.695Z,7.40
2019-06-01T19:10:46.446Z,6.70
2019-06-01T19:13:16.232Z,6.50
2019-06-01T19:15:45.617Z,9.07
2019-06-01T19:18:15.004Z,10.43
2019-06-01T19:20:44.302Z,8.13
2019-06-01T19:23:14.774Z,7.77
2019-06-01T19:25:44.276Z,7.60
2019-06-01T19:28:13.611Z,7.53
2019-06-01T19:30:44.790Z,10.00
2019-06-01T19:33:17.286Z,10.57
2019-06-01T19:35:45.064Z,8.80
2019-06-01T19:38:15.457Z,8.53
2019-06-01T19:40:44.965Z,10.60
2019-06-01T19:43:15.539Z,8.97
2019-06-01T19:45:45.123Z,8.63
2019-06-01T19:48:14.631Z,8.37
2019-06-01T19:50:44.095Z,10.07
2019-06-01T19:53:14.642Z,9.97
2019-06-01T19:55:44.102Z,9.80
2019-06-01T19:58:14.267Z,9.90
2019-06-01T20:00:44.116Z,10.00
2019-06-01T20:03:14.759Z,13.17
2019-06-01T20:05:44.385Z,11.93
2019-06-01T20:08:14.204Z,10.20
2019-06-01T20:10:43.740Z,10.07
2019-06-01T20:13:13.126Z,9.87
2019-06-01T20:15:42.570Z,11.53
2019-06-01T20:18:12.799Z,11.43
2019-06-01T20:20:42.213Z,10.10
2019-06-01T20:23:11.433Z,9.27
2019-06-01T20:25:40.729Z,9.03
2019-06-01T20:28:11.096Z,9.70
2019-06-01T20:30:40.633Z,9.40
2019-06-01T20:33:09.890Z,10.23
2019-06-01T20:35:39.302Z,11.03
2019-06-01T20:38:08.616Z,10.97
2019-06-01T20:40:37.877Z,10.03
2019-06-01T20:43:07.167Z,15.27
2019-06-01T20:45:36.430Z,10.77
2019-06-01T20:48:05.723Z,11.37
2019-06-01T20:50:34.994Z,15.83
2019-06-01T20:53:04.253Z,15.40
2019-06-01T20:55:33.545Z,12.77
2019-06-01T20:58:02.831Z,14.27
2019-06-01T21:00:32.217Z,13.17
2019-06-01T21:03:01.582Z,13.87
2019-06-01T21:05:30.918Z,13.77
2019-06-01T21:08:00.217Z,11.90
2019-06-01T21:10:29.537Z,10.63
2019-06-01T21:12:58.866Z,10.23
2019-06-01T21:15:28.262Z,15.27
2019-06-01T21:17:57.595Z,13.03
2019-06-01T21:20:30.019Z,12.97
2019-06-01T21:22:57.910Z,11.63
2019-06-01T21:25:27.210Z,14.47
2019-06-01T21:27:56.466Z,13.83
2019-06-01T21:30:25.897Z,15.27
2019-06-01T21:32:55.278Z,16.27
2019-06-01T21:35:25.580Z,16.83
2019-06-01T21:37:55.050Z,14.10
2019-06-01T21:40:25.650Z,17.50
2019-06-01T21:43:03.289Z,20.03
2019-06-01T21:45:26.045Z,15.30
2019-06-01T21:47:55.346Z,16.87
2019-06-01T21:50:25.669Z,17.80
2019-06-01T21:52:55.331Z,16.30
2019-06-01T21:55:24.818Z,15.73
2019-06-01T21:57:54.142Z,18.53
2019-06-01T22:00:33.922Z,18.27
2019-06-01T22:03:03.246Z,17.43
2019-06-01T22:05:32.582Z,16.27
2019-06-01T22:08:01.888Z,16.90
2019-06-01T22:10:31.226Z,15.13
2019-06-01T22:13:15.276Z,17.33
2019-06-01T22:15:31.737Z,18.37
2019-06-01T22:18:01.035Z,17.60
2019-06-01T22:20:30.411Z,15.47
2019-06-01T22:22:59.745Z,21.10
2019-06-01T22:25:29.018Z,21.00
2019-06-01T22:27:58.449Z,20.50
2019-06-01T22:30:28.711Z,15.83
2019-06-01T22:32:58.531Z,16.83
2019-06-01T22:35:28.805Z,22.33
2019-06-01T22:37:58.194Z,16.07
2019-06-01T22:40:27.602Z,16.20
2019-06-01T22:42:56.941Z,18.63
2019-06-01T22:45:27.087Z,16.73
2019-06-01T22:47:56.501Z,15.30
2019-06-01T22:50:26.924Z,17.13
2019-06-01T22:52:56.447Z,18.90
2019-06-01T22:55:26.327Z,16.90
2019-06-01T22:57:55.776Z,18.20
2019-06-01T23:00:25.857Z,16.47
2019-06-01T23:02:55.307Z,19.70
2019-06-01T23:05:25.069Z,16.23
2019-06-01T23:07:54.609Z,16.23
2019-06-01T23:10:29.542Z,15.03
2019-06-01T23:12:54.989Z,15.57
2019-06-01T23:15:25.592Z,16.43
2019-06-01T23:17:55.007Z,16.00
2019-06-01T23:20:24.310Z,17.20
2019-06-01T23:22:53.585Z,17.77
2019-06-01T23:25:22.870Z,18.20
2019-06-01T23:27:52.122Z,17.50
2019-06-01T23:30:22.015Z,17.80
2019-06-01T23:32:51.401Z,15.37
2019-06-01T23:35:20.751Z,15.47
2019-06-01T23:37:50.066Z,16.07
2019-06-01T23:40:19.334Z,18.37
2019-06-01T23:42:48.586Z,17.23
2019-06-01T23:45:17.858Z,14.97
2019-06-01T23:47:47.107Z,17.70
2019-06-01T23:50:16.401Z,14.83
2019-06-01T23:52:45.673Z,13.60
2019-06-01T23:55:15.133Z,18.77
2019-06-01T23:57:44.439Z,17.00
